Time;durP1;ratioP1;P1;durP2;ratioP2;P2;SDS_P1;SDS_P2;PMS_P1;PMS_P2;Temp;Humidity;BMP_temperature;BMP_pressure;BME280_temperature;BME280_humidity;BME280_pressure;Samples;Min_cycle;Max_cycle;Signal;HPM_P1;HPM_P2
2021/03/19 00:01:18;;;;;;;6.50;3.92;;;3.80;99.90;;;;;;5051801;28;20035;-86
2021/03/19 00:03:43;;;;;;;7.38;4.45;;;3.70;99.90;;;;;;5052205;28;20051;-89
2021/03/19 00:06:09;;;;;;;9.75;4.43;;;3.70;99.90;;;;;;5051176;28;20021;-91
2021/03/19 00:08:35;;;;;;;5.78;3.80;;;3.70;99.90;;;;;;5051566;28;20048;-92
2021/03/19 00:11:01;;;;;;;8.43;3.90;;;3.70;99.90;;;;;;5050861;28;20017;-87
2021/03/19 00:13:27;;;;;;;6.78;3.78;;;3.60;99.90;;;;;;5051440;28;20049;-86
2021/03/19 00:15:52;;;;;;;9.43;4.55;;;3.60;99.90;;;;;;5050124;28;20083;-88
2021/03/19 00:18:18;;;;;;;7.70;4.63;;;3.50;99.90;;;;;;5057410;28;20474;-89
2021/03/19 00:20:45;;;;;;;8.70;4.18;;;3.50;99.90;;;;;;5050307;28;20465;-85
2021/03/19 00:23:12;;;;;;;6.80;4.57;;;3.40;99.90;;;;;;5052122;28;20029;-89
2021/03/19 00:25:38;;;;;;;8.48;4.72;;;3.40;99.90;;;;;;5050461;28;20414;-89
2021/03/19 00:28:05;;;;;;;6.82;4.53;;;3.40;99.90;;;;;;5049941;28;20037;-89
2021/03/19 00:30:32;;;;;;;5.88;3.97;;;3.40;99.90;;;;;;5050076;28;20025;-87
2021/03/19 00:32:59;;;;;;;9.23;4.60;;;3.30;99.90;;;;;;5051016;28;20024;-88
2021/03/19 00:35:25;;;;;;;9.30;5.30;;;3.30;99.90;;;;;;5050847;28;20029;-86
2021/03/19 00:37:50;;;;;;;6.70;4.63;;;3.30;99.90;;;;;;5051101;28;20082;-88
2021/03/19 00:40:16;;;;;;;5.75;4.18;;;3.30;99.90;;;;;;5052073;28;20378;-88
2021/03/19 00:42:43;;;;;;;7.97;4.75;;;3.20;99.90;;;;;;5051769;28;20021;-87
2021/03/19 00:45:12;;;;;;;7.03;4.60;;;3.20;99.90;;;;;;5050943;28;20505;-86
2021/03/19 00:47:38;;;;;;;6.88;4.10;;;3.20;99.90;;;;;;5051034;28;20028;-87
2021/03/19 00:50:12;;;;;;;9.38;4.50;;;3.10;99.90;;;;;;5049913;28;20070;-87
2021/03/19 00:52:39;;;;;;;6.80;4.82;;;3.10;99.90;;;;;;5052572;28;20025;-87
2021/03/19 00:55:11;;;;;;;7.90;5.45;;;3.10;99.90;;;;;;5050226;28;20033;-86
2021/03/19 00:57:37;;;;;;;9.65;5.03;;;3.00;99.90;;;;;;5051607;28;20025;-87
2021/03/19 01:00:08;;;;;;;7.85;4.78;;;3.00;99.90;;;;;;5049813;28;20036;-87
2021/03/19 01:02:33;;;;;;;8.25;5.43;;;3.00;99.90;;;;;;5052033;28;20131;-88
2021/03/19 01:05:00;;;;;;;7.47;4.35;;;2.90;99.90;;;;;;5051746;28;20773;-87
2021/03/19 01:07:25;;;;;;;6.57;4.60;;;2.90;99.90;;;;;;5051915;28;20021;-87
2021/03/19 01:09:51;;;;;;;6.57;4.80;;;2.80;99.90;;;;;;5051603;28;20202;-88
2021/03/19 01:12:17;;;;;;;8.43;4.97;;;2.80;99.90;;;;;;5060753;28;20032;-86
2021/03/19 01:14:42;;;;;;;7.95;5.65;;;2.80;99.90;;;;;;5056511;28;20044;-87
2021/03/19 01:17:08;;;;;;;7.63;5.22;;;2.80;99.90;;;;;;5050007;28;20152;-85
2021/03/19 01:19:34;;;;;;;10.40;5.97;;;2.70;99.90;;;;;;5051416;28;20356;-86
2021/03/19 01:21:59;;;;;;;7.47;5.35;;;2.70;99.90;;;;;;5049682;28;20386;-84
2021/03/19 01:24:25;;;;;;;9.30;5.65;;;2.70;99.90;;;;;;5050941;28;20029;-87
2021/03/19 01:26:50;;;;;;;7.65;5.63;;;2.70;99.90;;;;;;5051473;28;20091;-87
2021/03/19 01:29:16;;;;;;;9.05;6.53;;;2.60;99.90;;;;;;5048510;28;20032;-89
2021/03/19 01:31:42;;;;;;;10.30;6.85;;;2.60;99.90;;;;;;5050147;28;20128;-88
2021/03/19 01:34:07;;;;;;;11.35;6.28;;;2.60;99.90;;;;;;5048074;28;20029;-87
2021/03/19 01:36:33;;;;;;;10.23;5.63;;;2.50;99.90;;;;;;5049458;28;20036;-88
2021/03/19 01:38:58;;;;;;;10.07;6.38;;;2.50;99.90;;;;;;5050034;28;20024;-89
2021/03/19 01:41:24;;;;;;;10.48;6.40;;;2.50;99.90;;;;;;5048928;28;20025;-86
2021/03/19 01:43:58;;;;;;;11.77;7.10;;;2.40;99.90;;;;;;5051814;28;20036;-87
2021/03/19 01:47:01;;;;;;;11.93;7.68;;;2.50;99.90;;;;;;5026846;28;20079;-86
2021/03/19 01:50:04;;;;;;;10.50;7.53;;;2.50;99.90;;;;;;5047697;28;20036;-86
2021/03/19 01:53:07;;;;;;;11.45;7.63;;;2.40;99.90;;;;;;5048303;28;20395;-86
2021/03/19 01:56:10;;;;;;;12.23;7.95;;;2.40;99.90;;;;;;5047678;28;20037;-87
2021/03/19 01:59:13;;;;;;;13.33;9.20;;;2.40;99.90;;;;;;5053932;28;20028;-87
2021/03/19 02:02:16;;;;;;;14.88;9.60;;;2.40;99.90;;;;;;5039743;28;20025;-87
2021/03/19 02:05:20;;;;;;;12.02;8.40;;;2.40;99.90;;;;;;5042081;28;20122;-89
2021/03/19 02:08:23;;;;;;;11.50;8.18;;;2.30;99.90;;;;;;5047963;28;20493;-87
2021/03/19 02:11:26;;;;;;;11.20;8.13;;;2.30;99.90;;;;;;5048532;28;20025;-91
2021/03/19 02:14:29;;;;;;;12.02;7.63;;;2.20;99.90;;;;;;5036567;28;20824;-88
2021/03/19 02:17:33;;;;;;;9.70;7.32;;;2.20;99.90;;;;;;5028036;28;20049;-86
2021/03/19 02:20:36;;;;;;;12.95;7.30;;;2.10;99.90;;;;;;5044845;28;20043;-88
2021/03/19 02:23:39;;;;;;;15.25;8.15;;;2.20;99.90;;;;;;5030782;28;20025;-85
2021/03/19 02:26:42;;;;;;;12.52;7.70;;;2.10;99.90;;;;;;5052449;28;20025;-88
2021/03/19 02:29:45;;;;;;;13.88;8.93;;;2.10;99.90;;;;;;5052818;28;20029;-87
2021/03/19 02:32:25;;;;;;;15.07;8.63;;;2.10;99.90;;;;;;5052366;28;20032;-87
2021/03/19 02:35:13;;;;;;;12.73;7.63;;;2.10;99.90;;;;;;5051311;28;20076;-88
2021/03/19 02:37:39;;;;;;;10.88;7.07;;;2.00;99.90;;;;;;5049103;28;20017;-88
2021/03/19 02:40:08;;;;;;;10.68;6.65;;;2.00;99.90;;;;;;5051381;28;20044;-88
2021/03/19 02:42:34;;;;;;;13.35;8.15;;;2.00;99.90;;;;;;5057031;28;20103;-87
2021/03/19 02:45:00;;;;;;;13.98;8.23;;;2.00;99.90;;;;;;5055332;28;20111;-88
2021/03/19 02:47:27;;;;;;;11.98;7.10;;;1.90;99.90;;;;;;5055617;28;20559;-86
2021/03/19 02:49:53;;;;;;;10.80;6.88;;;1.90;99.90;;;;;;5056060;28;20021;-87
2021/03/19 02:52:21;;;;;;;11.82;6.35;;;1.90;99.90;;;;;;5055280;28;20478;-88
2021/03/19 02:54:48;;;;;;;15.80;9.55;;;1.90;99.90;;;;;;5065041;28;20093;-89
2021/03/19 02:57:13;;;;;;;10.60;6.95;;;1.90;99.90;;;;;;5063354;28;20031;-87
2021/03/19 02:59:39;;;;;;;12.75;7.05;;;1.80;99.90;;;;;;5066592;28;20112;-86
2021/03/19 03:02:05;;;;;;;11.43;6.97;;;1.80;99.90;;;;;;5056915;28;20116;-86
2021/03/19 03:04:31;;;;;;;11.30;7.25;;;1.80;99.90;;;;;;5056562;28;20104;-86
2021/03/19 03:06:58;;;;;;;13.00;8.43;;;1.80;99.90;;;;;;5055374;28;20542;-86
2021/03/19 03:09:29;;;;;;;11.15;8.30;;;1.80;99.90;;;;;;5056815;28;20021;-87
2021/03/19 03:11:55;;;;;;;11.30;7.93;;;1.80;99.90;;;;;;5056805;28;20463;-86
2021/03/19 03:14:26;;;;;;;11.55;7.18;;;1.70;99.90;;;;;;5055501;28;20040;-87
2021/03/19 03:16:55;;;;;;;11.02;7.03;;;1.70;99.90;;;;;;5056969;28;20060;-86
2021/03/19 03:19:23;;;;;;;9.27;7.05;;;1.70;99.90;;;;;;5055509;28;20108;-86
2021/03/19 03:21:50;;;;;;;10.68;7.05;;;1.60;99.90;;;;;;5055461;28;20040;-86
2021/03/19 03:24:17;;;;;;;11.98;6.90;;;1.60;99.90;;;;;;5055492;28;20028;-87
2021/03/19 03:26:44;;;;;;;10.57;6.47;;;1.60;99.90;;;;;;5055483;28;20029;-87
2021/03/19 03:29:11;;;;;;;11.43;6.38;;;1.50;99.90;;;;;;5055206;28;20035;-87
2021/03/19 03:31:38;;;;;;;10.63;6.50;;;1.50;99.90;;;;;;5056346;28;20086;-85
2021/03/19 03:34:05;;;;;;;10.25;6.13;;;1.50;99.90;;;;;;5055579;28;20014;-87
2021/03/19 03:36:30;;;;;;;8.77;6.05;;;1.50;99.90;;;;;;5055351;28;20021;-87
2021/03/19 03:38:56;;;;;;;12.73;8.65;;;1.50;99.90;;;;;;5056485;28;20021;-87
2021/03/19 03:41:26;;;;;;;11.65;7.57;;;1.40;99.90;;;;;;5056425;28;20614;-86
2021/03/19 03:43:52;;;;;;;11.52;7.32;;;1.50;99.90;;;;;;5055010;28;20040;-85
2021/03/19 03:46:23;;;;;;;10.98;7.47;;;1.50;99.90;;;;;;5055606;28;20032;-87
2021/03/19 03:48:49;;;;;;;9.27;6.47;;;1.50;99.90;;;;;;5055316;28;20076;-88
2021/03/19 03:51:16;;;;;;;12.05;7.20;;;1.50;99.90;;;;;;5055432;28;20459;-88
2021/03/19 03:53:41;;;;;;;12.60;6.75;;;1.40;99.90;;;;;;5054602;28;20029;-87
2021/03/19 03:56:11;;;;;;;11.25;7.53;;;1.40;99.90;;;;;;5054550;28;20036;-88
2021/03/19 03:58:37;;;;;;;13.70;8.80;;;1.50;99.90;;;;;;5053981;28;20049;-87
2021/03/19 04:01:03;;;;;;;14.20;8.25;;;1.50;99.90;;;;;;5054758;28;20505;-88
2021/03/19 04:03:29;;;;;;;13.13;7.63;;;1.50;99.90;;;;;;5055479;28;20023;-88
2021/03/19 04:05:55;;;;;;;15.77;8.05;;;1.50;99.90;;;;;;5054373;28;20021;-89
2021/03/19 04:08:24;;;;;;;13.38;7.78;;;1.50;99.90;;;;;;5054359;28;20022;-88
2021/03/19 04:10:51;;;;;;;11.02;7.20;;;1.40;99.90;;;;;;5055608;28;20032;-88
2021/03/19 04:13:17;;;;;;;12.02;7.00;;;1.40;99.90;;;;;;5055319;28;20025;-88
2021/03/19 04:15:43;;;;;;;11.75;7.03;;;1.40;99.90;;;;;;5053857;28;20543;-88
2021/03/19 04:18:14;;;;;;;13.23;6.90;;;1.30;99.90;;;;;;5055340;28;20467;-87
2021/03/19 04:20:42;;;;;;;10.98;7.07;;;1.30;99.90;;;;;;5055377;28;20029;-89
2021/03/19 04:23:09;;;;;;;13.45;7.07;;;1.30;99.90;;;;;;5055238;28;20366;-88
2021/03/19 04:25:34;;;;;;;11.80;7.43;;;1.30;99.90;;;;;;5054121;28;20021;-87
2021/03/19 04:28:05;;;;;;;11.85;7.07;;;1.20;99.90;;;;;;5054211;28;20561;-88
2021/03/19 04:30:35;;;;;;;13.00;7.28;;;1.30;99.90;;;;;;5055593;28;20356;-87
2021/03/19 04:33:01;;;;;;;9.15;6.75;;;1.20;99.90;;;;;;5055565;28;20112;-88
2021/03/19 04:35:28;;;;;;;11.80;7.07;;;1.20;99.90;;;;;;5053882;28;20118;-88
2021/03/19 04:37:58;;;;;;;10.45;6.60;;;1.20;99.90;;;;;;5054398;28;20107;-88
2021/03/19 04:40:26;;;;;;;9.40;6.05;;;1.20;99.90;;;;;;5054147;28;20039;-88
2021/03/19 04:42:54;;;;;;;12.63;6.60;;;1.20;99.90;;;;;;5053711;28;20025;-88
2021/03/19 04:45:20;;;;;;;9.90;6.93;;;1.20;99.90;;;;;;5055249;28;20064;-87
2021/03/19 04:47:46;;;;;;;14.02;6.65;;;1.20;99.90;;;;;;5053938;28;20075;-87
2021/03/19 04:50:13;;;;;;;11.65;6.30;;;1.20;99.90;;;;;;5053910;28;20457;-87
2021/03/19 04:52:38;;;;;;;10.38;6.55;;;1.10;99.90;;;;;;5053740;28;20028;-87
2021/03/19 04:55:06;;;;;;;12.57;7.55;;;1.10;99.90;;;;;;5053732;28;20036;-86
2021/03/19 04:57:32;;;;;;;10.88;6.63;;;1.10;99.90;;;;;;5053935;28;20025;-87
2021/03/19 04:59:58;;;;;;;13.55;6.88;;;1.10;99.90;;;;;;5053352;28;20021;-87
2021/03/19 05:02:35;;;;;;;10.25;6.57;;;1.10;99.90;;;;;;5054664;28;20021;-87
2021/03/19 05:05:01;;;;;;;11.25;6.30;;;1.10;99.90;;;;;;5052533;28;20025;-87
2021/03/19 05:07:26;;;;;;;10.80;6.47;;;1.00;99.90;;;;;;5054087;28;20063;-88
2021/03/19 05:09:52;;;;;;;12.77;7.28;;;1.00;99.90;;;;;;5054105;28;20037;-88
2021/03/19 05:12:18;;;;;;;10.85;6.40;;;1.00;99.90;;;;;;5053638;28;20027;-88
2021/03/19 05:14:44;;;;;;;9.90;5.97;;;0.90;99.90;;;;;;5054991;28;20037;-88
2021/03/19 05:17:09;;;;;;;10.43;5.65;;;0.90;99.90;;;;;;5053103;28;20371;-89
2021/03/19 05:19:35;;;;;;;16.75;6.75;;;0.90;99.90;;;;;;5052929;28;20017;-87
2021/03/19 05:22:01;;;;;;;10.02;5.72;;;0.90;99.90;;;;;;5053102;28;20023;-87
2021/03/19 05:24:26;;;;;;;8.23;4.82;;;0.80;99.90;;;;;;5053142;28;20075;-87
2021/03/19 05:26:52;;;;;;;11.30;6.20;;;0.80;99.90;;;;;;5054265;28;20032;-88
2021/03/19 05:29:18;;;;;;;13.35;6.30;;;0.80;99.90;;;;;;5052913;28;20075;-88
2021/03/19 05:31:43;;;;;;;11.30;5.75;;;0.80;99.90;;;;;;5053011;28;20035;-88
2021/03/19 05:34:12;;;;;;;11.40;6.47;;;0.80;99.90;;;;;;5062832;28;20106;-89
2021/03/19 05:36:38;;;;;;;10.45;6.25;;;0.80;99.90;;;;;;5053065;28;20021;-88
2021/03/19 05:39:05;;;;;;;9.65;5.72;;;0.70;99.90;;;;;;5053163;28;20020;-88
2021/03/19 05:41:34;;;;;;;13.13;6.82;;;0.70;99.90;;;;;;5052880;28;20025;-88
2021/03/19 05:44:12;;;;;;;11.27;6.13;;;0.70;99.90;;;;;;5052769;28;20686;-87
2021/03/19 05:46:41;;;;;;;12.77;5.97;;;0.70;99.90;;;;;;5052981;28;20542;-87
2021/03/19 05:49:06;;;;;;;9.25;5.50;;;0.70;99.90;;;;;;5054053;28;20025;-87
2021/03/19 05:51:40;;;;;;;8.00;5.10;;;0.70;99.90;;;;;;5053905;28;20033;-87
2021/03/19 05:54:22;;;;;;;9.77;5.22;;;0.70;99.90;;;;;;5054228;28;20021;-87
2021/03/19 05:57:00;;;;;;;8.98;4.70;;;0.70;99.90;;;;;;5052892;28;20107;-88
2021/03/19 05:59:33;;;;;;;9.40;5.03;;;0.70;99.90;;;;;;5052605;28;20013;-89
2021/03/19 06:01:59;;;;;;;10.90;5.95;;;0.70;99.90;;;;;;5054093;28;20028;-87
2021/03/19 06:04:28;;;;;;;8.05;4.90;;;0.70;99.90;;;;;;5052553;28;20124;-86
2021/03/19 06:07:04;;;;;;;12.30;6.78;;;0.70;99.90;;;;;;5052956;28;20112;-88
2021/03/19 06:09:37;;;;;;;10.63;6.10;;;0.80;99.90;;;;;;5053630;28;20025;-91
2021/03/19 06:12:18;;;;;;;10.60;4.68;;;0.70;99.90;;;;;;5053185;28;20017;-91
2021/03/19 06:14:55;;;;;;;8.52;4.85;;;0.80;99.90;;;;;;5053053;28;20045;-86
2021/03/19 06:17:43;;;;;;;8.27;4.65;;;0.80;99.90;;;;;;5037045;28;20025;-87
2021/03/19 06:20:15;;;;;;;7.38;4.25;;;0.80;99.90;;;;;;5058839;28;20021;-88
2021/03/19 06:22:59;;;;;;;11.68;5.38;;;0.80;99.90;;;;;;5053439;28;20021;-89
2021/03/19 06:25:59;;;;;;;14.73;6.05;;;0.80;99.90;;;;;;5036757;28;20036;-87
2021/03/19 06:28:28;;;;;;;11.65;6.50;;;0.90;99.90;;;;;;5032518;28;20054;-87
2021/03/19 06:31:22;;;;;;;11.57;6.43;;;0.90;99.90;;;;;;5049515;28;20033;-89
2021/03/19 06:34:02;;;;;;;18.42;6.20;;;0.90;99.90;;;;;;5013480;28;20526;-90
2021/03/19 06:36:28;;;;;;;11.75;6.63;;;0.90;99.90;;;;;;5027748;28;20045;-89
2021/03/19 06:39:19;;;;;;;11.70;6.13;;;1.00;99.90;;;;;;5032941;28;20364;-89
2021/03/19 06:42:17;;;;;;;16.52;7.20;;;1.10;99.90;;;;;;5019398;28;20040;-90
2021/03/19 06:44:43;;;;;;;10.45;6.13;;;1.10;99.90;;;;;;5032698;28;20045;-88
2021/03/19 06:47:15;;;;;;;10.73;6.05;;;1.20;99.90;;;;;;5033005;28;20475;-88
2021/03/19 06:49:53;;;;;;;9.07;6.15;;;1.20;99.90;;;;;;5033848;28;20064;-91
2021/03/19 06:52:27;;;;;;;9.95;6.10;;;1.30;99.90;;;;;;5034304;28;20032;-90
2021/03/19 06:54:59;;;;;;;12.40;6.18;;;1.40;99.90;;;;;;5035346;28;20121;-89
2021/03/19 06:57:28;;;;;;;9.63;5.95;;;1.40;99.90;;;;;;5035286;28;20018;-88
2021/03/19 06:59:56;;;;;;;14.65;6.90;;;1.50;99.90;;;;;;5036032;28;20030;-91
2021/03/19 07:02:31;;;;;;;13.73;8.20;;;1.60;99.90;;;;;;5034484;28;20025;-91
2021/03/19 07:05:20;;;;;;;12.63;6.57;;;1.70;99.90;;;;;;5039088;28;20034;-89
2021/03/19 07:08:05;;;;;;;10.60;6.05;;;1.80;99.90;;;;;;5033532;28;20036;-90
2021/03/19 07:10:51;;;;;;;8.45;5.18;;;1.90;99.90;;;;;;5032501;28;20029;-89
2021/03/19 07:13:40;;;;;;;10.77;6.28;;;2.00;99.90;;;;;;5033914;28;20109;-90
2021/03/19 07:16:42;;;;;;;12.02;5.47;;;2.10;99.90;;;;;;5032234;28;20029;-89
2021/03/19 07:19:23;;;;;;;11.57;6.25;;;2.30;99.90;;;;;;5017879;28;20128;-88
2021/03/19 07:21:55;;;;;;;9.95;5.38;;;2.40;99.90;;;;;;5012439;28;20137;-88
2021/03/19 07:24:48;;;;;;;10.05;6.15;;;2.50;99.90;;;;;;5011816;28;20088;-89
2021/03/19 07:27:47;;;;;;;8.90;5.23;;;2.60;99.90;;;;;;5031434;28;20037;-89
2021/03/19 07:30:31;;;;;;;8.77;4.75;;;2.70;99.90;;;;;;5036008;28;20034;-91
2021/03/19 07:33:11;;;;;;;10.77;5.10;;;2.80;99.90;;;;;;5036267;28;20140;-89
2021/03/19 07:36:06;;;;;;;9.77;5.35;;;2.90;99.90;;;;;;5016201;28;20404;-91
2021/03/19 07:38:56;;;;;;;9.98;5.20;;;3.00;99.90;;;;;;5017971;28;20502;-91
2021/03/19 07:41:34;;;;;;;9.65;4.20;;;3.10;99.90;;;;;;5015964;28;20029;-89
2021/03/19 07:44:13;;;;;;;10.57;4.57;;;3.10;99.90;;;;;;5015279;28;20069;-89
2021/03/19 07:47:17;;;;;;;8.13;4.32;;;3.20;99.90;;;;;;5016018;28;20033;-89
2021/03/19 07:49:56;;;;;;;7.68;4.25;;;3.30;99.90;;;;;;5003753;28;20380;-88
2021/03/19 07:52:47;;;;;;;8.00;3.75;;;3.40;99.90;;;;;;5027246;28;20526;-87
2021/03/19 07:55:28;;;;;;;7.05;3.58;;;3.40;99.90;;;;;;5035587;28;20110;-88
2021/03/19 07:58:34;;;;;;;6.25;3.40;;;3.30;99.90;;;;;;5034832;28;20113;-88
2021/03/19 08:01:58;;;;;;;7.90;4.18;;;3.40;99.90;;;;;;5034990;28;20022;-89
2021/03/19 08:05:01;;;;;;;7.13;3.08;;;3.40;99.90;;;;;;4937403;29;20141;-89
2021/03/19 08:07:50;;;;;;;7.15;3.03;;;3.50;99.90;;;;;;4924782;29;20023;-89
2021/03/19 08:10:18;;;;;;;6.35;2.95;;;3.50;99.90;;;;;;5025578;28;20168;-89
2021/03/19 08:13:20;;;;;;;4.85;2.65;;;3.60;99.90;;;;;;5033966;28;20032;-88
2021/03/19 08:15:53;;;;;;;4.68;2.58;;;3.60;99.90;;;;;;5022395;28;20046;-88
2021/03/19 08:18:30;;;;;;;4.65;2.20;;;3.70;99.90;;;;;;5034424;28;20021;-87
2021/03/19 08:21:33;;;;;;;9.52;4.13;;;3.70;99.90;;;;;;5033992;28;20048;-88
2021/03/19 08:24:11;;;;;;;4.50;2.30;;;3.80;99.90;;;;;;5001072;28;20033;-88
2021/03/19 08:27:04;;;;;;;3.88;1.90;;;3.90;99.90;;;;;;5033900;28;20553;-88
2021/03/19 08:29:36;;;;;;;3.88;1.88;;;4.00;99.90;;;;;;5018950;28;20087;-88
2021/03/19 08:32:16;;;;;;;5.93;2.13;;;4.00;99.90;;;;;;5035063;28;20471;-89
2021/03/19 08:35:02;;;;;;;5.25;2.30;;;4.10;99.90;;;;;;5050927;28;20049;-89
2021/03/19 08:37:41;;;;;;;3.80;1.75;;;4.20;99.90;;;;;;5051112;28;20053;-89
2021/03/19 08:40:16;;;;;;;4.57;1.85;;;4.30;99.90;;;;;;5043532;28;20025;-88
2021/03/19 08:42:47;;;;;;;3.03;1.52;;;4.40;99.90;;;;;;5033263;28;20025;-86
2021/03/19 08:45:26;;;;;;;4.65;1.60;;;4.50;99.90;;;;;;5033645;28;20052;-88
2021/03/19 08:47:54;;;;;;;3.42;1.35;;;4.50;99.90;;;;;;5034760;28;20025;-89
2021/03/19 08:50:38;;;;;;;3.92;1.58;;;4.60;99.90;;;;;;5034955;28;20026;-89
2021/03/19 08:53:12;;;;;;;3.20;1.30;;;4.70;99.90;;;;;;5033717;28;20087;-87
2021/03/19 08:55:40;;;;;;;2.53;1.10;;;4.70;99.90;;;;;;5034090;28;20037;-90
2021/03/19 08:58:30;;;;;;;3.55;1.55;;;4.80;99.90;;;;;;5034908;28;20036;-89
2021/03/19 09:01:07;;;;;;;4.03;2.13;;;4.80;99.90;;;;;;5032531;28;20479;-88
2021/03/19 09:03:42;;;;;;;6.22;2.03;;;4.90;99.90;;;;;;5016361;28;20064;-87
2021/03/19 09:06:17;;;;;;;2.88;1.48;;;5.00;99.90;;;;;;5027147;28;20018;-88
2021/03/19 09:08:43;;;;;;;5.72;2.08;;;5.00;99.90;;;;;;5035436;28;20056;-89
2021/03/19 09:11:13;;;;;;;3.92;2.03;;;5.10;99.90;;;;;;5047291;28;20045;-88
2021/03/19 09:13:59;;;;;;;4.55;2.10;;;5.10;99.90;;;;;;5031478;28;20461;-89
2021/03/19 09:16:46;;;;;;;3.78;1.77;;;5.20;99.90;;;;;;5032284;28;20034;-92
2021/03/19 09:19:31;;;;;;;4.35;2.10;;;5.30;99.90;;;;;;5032918;28;20025;-90
2021/03/19 09:22:29;;;;;;;3.15;1.80;;;5.40;99.90;;;;;;5017670;28;20025;-88
2021/03/19 09:25:13;;;;;;;3.42;1.70;;;5.50;99.90;;;;;;5030383;28;20025;-87
2021/03/19 09:27:47;;;;;;;7.00;2.55;;;5.50;99.90;;;;;;5029983;28;20036;-87
2021/03/19 09:30:22;;;;;;;6.43;2.65;;;5.60;99.90;;;;;;5032503;28;20513;-88
2021/03/19 09:32:54;;;;;;;3.67;2.00;;;5.70;99.10;;;;;;5039173;28;20116;-87
2021/03/19 09:35:38;;;;;;;7.43;3.28;;;5.70;99.60;;;;;;5031225;28;20491;-88
2021/03/19 09:38:23;;;;;;;7.32;2.85;;;5.80;99.30;;;;;;5018465;28;20029;-88
2021/03/19 09:40:52;;;;;;;4.82;2.65;;;5.90;99.60;;;;;;5030900;28;20060;-86
2021/03/19 09:43:39;;;;;;;5.50;2.67;;;6.00;98.80;;;;;;5030898;28;20029;-86
2021/03/19 09:46:16;;;;;;;4.43;2.13;;;6.20;98.10;;;;;;5032205;28;20527;-87
2021/03/19 09:49:01;;;;;;;5.57;2.60;;;6.30;97.70;;;;;;5029942;28;20049;-85
2021/03/19 09:51:40;;;;;;;3.80;2.13;;;6.50;97.70;;;;;;5026491;28;20060;-86
2021/03/19 09:54:36;;;;;;;5.63;2.35;;;7.40;97.90;;;;;;5043830;28;20032;-91
2021/03/19 09:57:20;;;;;;;6.20;2.30;;;9.20;96.70;;;;;;5010803;28;20388;-88
2021/03/19 09:59:54;;;;;;;4.95;2.00;;;10.70;94.20;;;;;;5030735;28;20013;-86
2021/03/19 10:02:26;;;;;;;;;;;11.80;93.90;;;;;;5032033;28;20044;-88
2021/03/19 10:04:51;;;;;;;6.28;2.38;;;12.70;92.70;;;;;;5032689;28;20351;-87
2021/03/19 10:07:24;;;;;;;3.80;1.75;;;13.50;90.60;;;;;;5031329;28;20480;-87
2021/03/19 10:09:54;;;;;;;4.57;2.08;;;13.90;89.10;;;;;;5018965;28;20017;-87
2021/03/19 10:12:21;;;;;;;4.63;2.15;;;14.40;87.70;;;;;;5031291;28;20017;-87
2021/03/19 10:14:50;;;;;;;3.50;1.70;;;14.70;81.10;;;;;;5032534;28;20463;-88
2021/03/19 10:17:26;;;;;;;4.78;2.22;;;14.70;78.70;;;;;;5030994;28;20083;-87
2021/03/19 10:19:56;;;;;;;4.15;2.17;;;14.80;75.80;;;;;;5019078;28;20040;-85
2021/03/19 10:22:39;;;;;;;4.78;2.03;;;14.90;74.70;;;;;;5042957;28;20091;-86
2021/03/19 10:25:24;;;;;;;5.15;2.15;;;15.20;74.00;;;;;;5033230;28;20025;-87
2021/03/19 10:28:11;;;;;;;5.60;2.90;;;15.40;70.50;;;;;;5012229;28;20041;-89
2021/03/19 10:31:07;;;;;;;5.47;2.50;;;15.40;69.20;;;;;;5013359;28;20519;-86
2021/03/19 10:33:47;;;;;;;5.53;2.60;;;15.30;66.40;;;;;;5026033;28;20025;-88
2021/03/19 10:36:18;;;;;;;3.85;1.90;;;14.40;66.40;;;;;;5027152;28;20029;-85
2021/03/19 10:38:57;;;;;;;4.30;2.25;;;14.10;68.90;;;;;;5028278;28;20032;-86
2021/03/19 10:41:47;;;;;;;4.35;2.10;;;14.70;70.70;;;;;;5008337;28;20040;-85
2021/03/19 10:44:30;;;;;;;4.53;2.45;;;15.70;70.00;;;;;;5030018;28;20037;-87
2021/03/19 10:47:01;;;;;;;3.53;1.77;;;16.20;67.90;;;;;;5032987;28;20021;-88
2021/03/19 10:49:51;;;;;;;6.00;2.58;;;16.40;68.60;;;;;;5028014;28;20014;-86
2021/03/19 10:52:52;;;;;;;4.20;2.22;;;16.40;65.20;;;;;;5028939;28;20053;-86
2021/03/19 10:55:26;;;;;;;3.95;2.00;;;16.50;64.90;;;;;;5016731;28;20187;-86
2021/03/19 10:58:12;;;;;;;3.97;2.03;;;16.90;64.40;;;;;;5030539;28;20033;-85
2021/03/19 11:00:43;;;;;;;5.97;2.40;;;17.10;63.10;;;;;;5024676;28;20026;-85
2021/03/19 11:03:32;;;;;;;3.22;1.58;;;17.10;61.50;;;;;;5034187;28;20018;-87
2021/03/19 11:06:01;;;;;;;4.22;1.73;;;16.90;61.50;;;;;;5035204;28;20033;-88
2021/03/19 11:08:27;;;;;;;3.90;1.88;;;17.20;62.00;;;;;;5042440;28;20411;-85
2021/03/19 11:10:53;;;;;;;3.33;1.70;;;17.20;58.50;;;;;;5035132;28;20049;-87
2021/03/19 11:13:21;;;;;;;4.47;1.90;;;17.10;60.00;;;;;;5038666;28;20481;-87
2021/03/19 11:15:49;;;;;;;5.20;1.80;;;17.40;60.10;;;;;;5041586;28;20032;-87
2021/03/19 11:18:26;;;;;;;3.13;1.63;;;17.70;59.30;;;;;;5034210;28;20364;-85
2021/03/19 11:21:06;;;;;;;4.78;1.83;;;17.90;58.50;;;;;;5035215;28;20026;-87
2021/03/19 11:23:46;;;;;;;5.13;2.17;;;18.00;59.30;;;;;;5025927;28;20386;-87
2021/03/19 11:26:24;;;;;;;4.97;1.60;;;18.00;55.70;;;;;;5034453;28;20029;-86
2021/03/19 11:29:06;;;;;;;3.83;1.63;;;17.80;57.50;;;;;;5034621;28;20087;-89
2021/03/19 11:31:32;;;;;;;6.47;1.95;;;17.80;57.40;;;;;;5025834;28;20083;-87
2021/03/19 11:34:12;;;;;;;3.42;1.45;;;17.80;54.60;;;;;;5034259;28;20049;-85
2021/03/19 11:37:03;;;;;;;2.20;1.40;;;17.90;56.40;;;;;;5028200;28;20037;-87
2021/03/19 11:40:10;;;;;;;3.35;1.40;;;18.40;56.40;;;;;;5020231;28;20467;-87
2021/03/19 11:43:04;;;;;;;3.08;1.40;;;19.00;56.70;;;;;;5028761;28;20140;-86
2021/03/19 11:45:42;;;;;;;2.60;1.45;;;19.10;55.20;;;;;;5028972;28;20038;-87
2021/03/19 11:48:28;;;;;;;2.97;1.40;;;18.60;54.80;;;;;;5047742;28;20026;-88
2021/03/19 11:51:16;;;;;;;2.35;1.30;;;18.10;53.80;;;;;;5029310;28;20036;-86
2021/03/19 11:53:42;;;;;;;3.13;1.30;;;18.10;55.30;;;;;;5021657;28;20025;-87
2021/03/19 11:56:08;;;;;;;3.60;1.50;;;18.30;54.80;;;;;;5034318;28;20120;-87
2021/03/19 11:58:34;;;;;;;2.60;1.50;;;18.60;54.70;;;;;;5034079;28;20467;-86
2021/03/19 12:01:02;;;;;;;4.75;1.67;;;18.50;53.50;;;;;;5035501;28;20025;-87
2021/03/19 12:03:39;;;;;;;3.30;1.30;;;18.10;53.50;;;;;;5034570;28;20021;-89
2021/03/19 12:06:06;;;;;;;2.15;1.15;;;18.30;54.20;;;;;;5034047;28;20037;-87
2021/03/19 12:08:34;;;;;;;2.67;1.23;;;18.50;52.90;;;;;;5034242;28;20071;-89
2021/03/19 12:11:02;;;;;;;2.33;1.10;;;18.50;50.80;;;;;;5034098;28;20094;-87
2021/03/19 12:13:29;;;;;;;2.42;1.50;;;18.50;52.50;;;;;;5033554;28;20017;-88
2021/03/19 12:15:55;;;;;;;1.75;0.90;;;18.80;50.70;;;;;;5030078;28;20049;-86
2021/03/19 12:18:23;;;;;;;1.85;1.00;;;18.90;50.70;;;;;;5031404;28;20033;-88
2021/03/19 12:20:49;;;;;;;2.35;0.90;;;19.00;50.30;;;;;;5032686;28;20029;-87
2021/03/19 12:23:15;;;;;;;1.52;0.70;;;19.30;49.80;;;;;;5032398;28;20109;-92
2021/03/19 12:25:43;;;;;;;1.10;0.73;;;19.50;49.10;;;;;;5032135;28;20433;-88
2021/03/19 12:28:12;;;;;;;3.03;1.20;;;19.70;48.60;;;;;;5032669;28;20025;-88
2021/03/19 12:30:38;;;;;;;2.30;1.48;;;19.60;48.40;;;;;;5031166;28;20060;-89
2021/03/19 12:33:05;;;;;;;2.22;1.17;;;19.60;48.10;;;;;;5030910;28;20049;-89
2021/03/19 12:35:31;;;;;;;1.85;1.10;;;19.40;47.30;;;;;;5031914;28;20034;-90
2021/03/19 12:37:57;;;;;;;3.38;1.00;;;19.20;48.00;;;;;;5032673;28;20365;-89
2021/03/19 12:40:25;;;;;;;1.70;0.80;;;18.90;48.90;;;;;;5065485;28;20035;-88
2021/03/19 12:42:54;;;;;;;2.60;0.93;;;18.30;49.10;;;;;;5044564;28;20479;-90
2021/03/19 12:45:23;;;;;;;1.60;0.80;;;17.90;50.20;;;;;;5014734;28;20041;-89
2021/03/19 12:47:49;;;;;;;2.65;1.00;;;18.20;50.20;;;;;;5030637;28;20561;-90
2021/03/19 12:50:17;;;;;;;2.40;0.95;;;18.50;49.00;;;;;;5031676;28;20057;-91
2021/03/19 12:52:43;;;;;;;3.13;1.30;;;18.70;49.30;;;;;;5033090;28;20408;-89
2021/03/19 12:55:09;;;;;;;1.98;1.00;;;18.90;47.80;;;;;;5033291;28;20068;-88
2021/03/19 12:57:34;;;;;;;3.05;1.20;;;18.90;49.30;;;;;;5033776;28;20021;-89
2021/03/19 13:00:00;;;;;;;2.03;1.00;;;19.10;48.70;;;;;;5032955;28;20426;-88
2021/03/19 13:02:26;;;;;;;2.13;0.90;;;19.20;47.80;;;;;;5035800;28;20030;-89
2021/03/19 13:04:51;;;;;;;1.38;0.80;;;19.30;47.50;;;;;;5034644;28;20513;-90
2021/03/19 13:07:17;;;;;;;2.28;0.95;;;19.40;47.90;;;;;;5033930;28;20033;-91
2021/03/19 13:09:43;;;;;;;1.35;0.70;;;19.40;47.20;;;;;;5033261;28;20038;-88
2021/03/19 13:12:09;;;;;;;2.20;0.85;;;19.60;47.50;;;;;;5033117;28;20101;-89
2021/03/19 13:14:34;;;;;;;1.42;0.60;;;19.70;47.30;;;;;;5034133;28;20022;-87
2021/03/19 13:17:02;;;;;;;2.35;0.88;;;19.70;46.50;;;;;;5031649;28;20032;-90
2021/03/19 13:19:28;;;;;;;1.83;1.13;;;19.70;46.70;;;;;;5029337;28;20026;-87
2021/03/19 13:21:55;;;;;;;1.05;0.63;;;19.60;45.90;;;;;;5030501;28;20030;-87
2021/03/19 13:24:21;;;;;;;3.30;0.90;;;19.10;46.80;;;;;;5030561;28;20758;-87
2021/03/19 13:26:48;;;;;;;1.27;0.70;;;17.90;47.20;;;;;;5034763;28;20080;-88
2021/03/19 13:29:14;;;;;;;1.92;0.70;;;17.50;47.30;;;;;;5027084;28;20057;-87